sensor_id;sensor_type;location;lat;lon;timestamp;P1;durP1;ratioP1;P2;durP2;ratioP2
34234;SDS011;20500;49.856;20.290;2023-02-15T00:01:07;60.30;;;39.30;;
34234;SDS011;20500;49.856;20.290;2023-02-15T00:04:15;76.30;;;49.20;;
34234;SDS011;20500;49.856;20.290;2023-02-15T00:07:24;49.90;;;36.50;;
34234;SDS011;20500;49.856;20.290;2023-02-15T00:13:35;51.40;;;36.70;;
34234;SDS011;20500;49.856;20.290;2023-02-15T00:16:45;51.50;;;35.30;;
34234;SDS011;20500;49.856;20.290;2023-02-15T00:19:53;54.80;;;38.20;;
34234;SDS011;20500;49.856;20.290;2023-02-15T00:22:59;46.20;;;32.60;;
34234;SDS011;20500;49.856;20.290;2023-02-15T00:26:07;41.50;;;28.70;;
34234;SDS011;20500;49.856;20.290;2023-02-15T00:29:15;40.20;;;26.80;;
34234;SDS011;20500;49.856;20.290;2023-02-15T00:32:22;39.00;;;27.50;;
34234;SDS011;20500;49.856;20.290;2023-02-15T00:35:28;46.60;;;33.20;;
34234;SDS011;20500;49.856;20.290;2023-02-15T00:38:35;47.00;;;30.80;;
34234;SDS011;20500;49.856;20.290;2023-02-15T00:41:42;49.90;;;35.00;;
34234;SDS011;20500;49.856;20.290;2023-02-15T00:47:53;43.90;;;31.90;;
34234;SDS011;20500;49.856;20.290;2023-02-15T00:50:59;49.60;;;33.10;;
34234;SDS011;20500;49.856;20.290;2023-02-15T00:54:05;44.20;;;31.90;;
34234;SDS011;20500;49.856;20.290;2023-02-15T00:57:12;43.90;;;30.50;;
34234;SDS011;20500;49.856;20.290;2023-02-15T01:03:23;45.40;;;30.90;;
34234;SDS011;20500;49.856;20.290;2023-02-15T01:06:29;47.40;;;33.40;;
34234;SDS011;20500;49.856;20.290;2023-02-15T01:09:35;42.10;;;31.60;;
34234;SDS011;20500;49.856;20.290;2023-02-15T01:12:41;46.40;;;31.00;;
34234;SDS011;20500;49.856;20.290;2023-02-15T01:15:51;36.90;;;28.90;;
34234;SDS011;20500;49.856;20.290;2023-02-15T01:18:59;41.50;;;28.90;;
34234;SDS011;20500;49.856;20.290;2023-02-15T01:22:06;34.30;;;24.30;;
34234;SDS011;20500;49.856;20.290;2023-02-15T01:28:17;41.00;;;28.00;;
34234;SDS011;20500;49.856;20.290;2023-02-15T01:31:23;39.70;;;26.10;;
34234;SDS011;20500;49.856;20.290;2023-02-15T01:34:30;37.40;;;25.60;;
34234;SDS011;20500;49.856;20.290;2023-02-15T01:37:36;37.50;;;26.50;;
34234;SDS011;20500;49.856;20.290;2023-02-15T01:40:43;31.10;;;22.80;;
34234;SDS011;20500;49.856;20.290;2023-02-15T01:43:50;30.00;;;20.50;;
34234;SDS011;20500;49.856;20.290;2023-02-15T01:46:58;27.90;;;19.90;;
34234;SDS011;20500;49.856;20.290;2023-02-15T01:50:06;28.80;;;19.20;;
34234;SDS011;20500;49.856;20.290;2023-02-15T01:53:18;26.10;;;17.50;;
34234;SDS011;20500;49.856;20.290;2023-02-15T01:56:29;29.70;;;19.80;;
34234;SDS011;20500;49.856;20.290;2023-02-15T01:59:39;31.00;;;21.50;;
34234;SDS011;20500;49.856;20.290;2023-02-15T02:02:48;30.20;;;20.60;;
34234;SDS011;20500;49.856;20.290;2023-02-15T02:05:58;28.30;;;18.80;;
34234;SDS011;20500;49.856;20.290;2023-02-15T02:09:04;28.40;;;18.60;;
34234;SDS011;20500;49.856;20.290;2023-02-15T02:12:11;27.40;;;16.60;;
34234;SDS011;20500;49.856;20.290;2023-02-15T02:15:18;26.70;;;17.70;;
34234;SDS011;20500;49.856;20.290;2023-02-15T02:18:35;24.60;;;17.20;;
34234;SDS011;20500;49.856;20.290;2023-02-15T02:22:11;27.80;;;17.20;;
34234;SDS011;20500;49.856;20.290;2023-02-15T02:26:02;24.20;;;16.10;;
34234;SDS011;20500;49.856;20.290;2023-02-15T02:33:15;26.40;;;17.60;;
34234;SDS011;20500;49.856;20.290;2023-02-15T02:36:30;24.40;;;17.80;;
34234;SDS011;20500;49.856;20.290;2023-02-15T02:39:49;26.30;;;17.20;;
34234;SDS011;20500;49.856;20.290;2023-02-15T02:43:01;26.70;;;18.00;;
34234;SDS011;20500;49.856;20.290;2023-02-15T02:46:15;24.10;;;16.70;;
34234;SDS011;20500;49.856;20.290;2023-02-15T02:49:31;26.60;;;17.10;;
34234;SDS011;20500;49.856;20.290;2023-02-15T02:52:40;24.00;;;16.90;;
34234;SDS011;20500;49.856;20.290;2023-02-15T02:55:48;24.60;;;17.10;;
34234;SDS011;20500;49.856;20.290;2023-02-15T02:59:00;26.00;;;17.10;;
34234;SDS011;20500;49.856;20.290;2023-02-15T03:02:10;25.60;;;17.10;;
34234;SDS011;20500;49.856;20.290;2023-02-15T03:05:21;25.60;;;17.20;;
34234;SDS011;20500;49.856;20.290;2023-02-15T03:08:32;26.90;;;18.30;;
34234;SDS011;20500;49.856;20.290;2023-02-15T03:11:41;28.10;;;18.30;;
34234;SDS011;20500;49.856;20.290;2023-02-15T03:14:50;27.40;;;17.90;;
34234;SDS011;20500;49.856;20.290;2023-02-15T03:17:59;25.30;;;17.30;;
34234;SDS011;20500;49.856;20.290;2023-02-15T03:21:07;26.90;;;17.50;;
34234;SDS011;20500;49.856;20.290;2023-02-15T03:24:26;23.80;;;17.50;;
34234;SDS011;20500;49.856;20.290;2023-02-15T03:27:37;29.10;;;19.10;;
34234;SDS011;20500;49.856;20.290;2023-02-15T03:30:47;24.70;;;17.40;;
34234;SDS011;20500;49.856;20.290;2023-02-15T03:33:57;24.70;;;17.30;;
34234;SDS011;20500;49.856;20.290;2023-02-15T03:37:09;24.50;;;17.30;;
34234;SDS011;20500;49.856;20.290;2023-02-15T03:40:21;28.50;;;18.40;;
34234;SDS011;20500;49.856;20.290;2023-02-15T03:43:49;27.70;;;17.80;;
34234;SDS011;20500;49.856;20.290;2023-02-15T03:47:02;25.80;;;17.70;;
34234;SDS011;20500;49.856;20.290;2023-02-15T03:50:13;25.10;;;17.10;;
34234;SDS011;20500;49.856;20.290;2023-02-15T03:53:42;27.60;;;17.40;;
34234;SDS011;20500;49.856;20.290;2023-02-15T03:56:50;25.70;;;17.70;;
34234;SDS011;20500;49.856;20.290;2023-02-15T04:00:14;26.70;;;18.00;;
34234;SDS011;20500;49.856;20.290;2023-02-15T04:03:41;25.80;;;18.50;;
34234;SDS011;20500;49.856;20.290;2023-02-15T04:06:49;26.10;;;18.60;;
34234;SDS011;20500;49.856;20.290;2023-02-15T04:09:56;23.90;;;17.60;;
34234;SDS011;20500;49.856;20.290;2023-02-15T04:13:19;26.80;;;18.10;;
34234;SDS011;20500;49.856;20.290;2023-02-15T04:16:28;24.50;;;17.20;;
34234;SDS011;20500;49.856;20.290;2023-02-15T04:19:34;25.40;;;18.40;;
34234;SDS011;20500;49.856;20.290;2023-02-15T04:22:58;27.40;;;17.80;;
34234;SDS011;20500;49.856;20.290;2023-02-15T04:26:21;26.30;;;18.70;;
34234;SDS011;20500;49.856;20.290;2023-02-15T04:29:28;29.50;;;20.00;;
34234;SDS011;20500;49.856;20.290;2023-02-15T04:32:35;25.50;;;18.10;;
34234;SDS011;20500;49.856;20.290;2023-02-15T04:35:42;25.80;;;18.80;;
34234;SDS011;20500;49.856;20.290;2023-02-15T04:38:49;25.70;;;18.20;;
34234;SDS011;20500;49.856;20.290;2023-02-15T04:41:55;25.20;;;17.30;;
34234;SDS011;20500;49.856;20.290;2023-02-15T04:45:02;28.60;;;20.20;;
34234;SDS011;20500;49.856;20.290;2023-02-15T04:48:09;26.10;;;18.80;;
34234;SDS011;20500;49.856;20.290;2023-02-15T04:51:15;27.00;;;18.40;;
34234;SDS011;20500;49.856;20.290;2023-02-15T04:54:21;27.40;;;19.10;;
34234;SDS011;20500;49.856;20.290;2023-02-15T04:57:28;27.30;;;19.40;;
34234;SDS011;20500;49.856;20.290;2023-02-15T05:03:39;27.40;;;18.40;;
34234;SDS011;20500;49.856;20.290;2023-02-15T05:06:45;27.80;;;19.60;;
34234;SDS011;20500;49.856;20.290;2023-02-15T05:09:51;27.50;;;18.70;;
34234;SDS011;20500;49.856;20.290;2023-02-15T05:12:58;27.20;;;18.10;;
34234;SDS011;20500;49.856;20.290;2023-02-15T05:16:04;26.50;;;17.70;;
34234;SDS011;20500;49.856;20.290;2023-02-15T05:19:11;27.00;;;17.90;;
34234;SDS011;20500;49.856;20.290;2023-02-15T05:22:17;28.50;;;19.10;;
34234;SDS011;20500;49.856;20.290;2023-02-15T05:28:45;28.10;;;19.10;;
34234;SDS011;20500;49.856;20.290;2023-02-15T05:31:51;26.30;;;18.80;;
34234;SDS011;20500;49.856;20.290;2023-02-15T05:34:58;26.80;;;19.50;;
34234;SDS011;20500;49.856;20.290;2023-02-15T05:41:09;27.50;;;18.50;;
34234;SDS011;20500;49.856;20.290;2023-02-15T05:44:16;28.00;;;18.80;;
34234;SDS011;20500;49.856;20.290;2023-02-15T05:47:22;26.20;;;18.70;;
34234;SDS011;20500;49.856;20.290;2023-02-15T05:50:28;24.10;;;17.20;;
34234;SDS011;20500;49.856;20.290;2023-02-15T05:53:35;26.00;;;17.30;;
34234;SDS011;20500;49.856;20.290;2023-02-15T05:56:42;27.60;;;18.80;;
34234;SDS011;20500;49.856;20.290;2023-02-15T05:59:48;26.20;;;18.10;;
34234;SDS011;20500;49.856;20.290;2023-02-15T06:05:59;23.80;;;16.80;;
34234;SDS011;20500;49.856;20.290;2023-02-15T06:09:07;24.80;;;17.00;;
34234;SDS011;20500;49.856;20.290;2023-02-15T06:12:14;26.60;;;17.00;;
34234;SDS011;20500;49.856;20.290;2023-02-15T06:15:20;25.80;;;17.80;;
34234;SDS011;20500;49.856;20.290;2023-02-15T06:21:31;25.60;;;17.00;;
34234;SDS011;20500;49.856;20.290;2023-02-15T06:24:37;25.80;;;17.10;;
34234;SDS011;20500;49.856;20.290;2023-02-15T06:27:45;23.70;;;16.50;;
34234;SDS011;20500;49.856;20.290;2023-02-15T06:30:52;22.30;;;15.90;;
34234;SDS011;20500;49.856;20.290;2023-02-15T06:37:04;22.70;;;14.60;;
34234;SDS011;20500;49.856;20.290;2023-02-15T06:40:12;22.50;;;15.10;;
34234;SDS011;20500;49.856;20.290;2023-02-15T06:43:19;20.40;;;13.90;;
34234;SDS011;20500;49.856;20.290;2023-02-15T06:46:25;21.40;;;14.00;;
34234;SDS011;20500;49.856;20.290;2023-02-15T06:49:32;20.90;;;13.90;;
34234;SDS011;20500;49.856;20.290;2023-02-15T06:52:38;21.40;;;14.30;;
34234;SDS011;20500;49.856;20.290;2023-02-15T06:58:49;23.90;;;16.10;;
34234;SDS011;20500;49.856;20.290;2023-02-15T07:01:55;25.00;;;16.00;;
34234;SDS011;20500;49.856;20.290;2023-02-15T07:05:01;26.30;;;17.10;;
34234;SDS011;20500;49.856;20.290;2023-02-15T07:08:08;20.80;;;14.60;;
34234;SDS011;20500;49.856;20.290;2023-02-15T07:11:14;23.80;;;15.00;;
34234;SDS011;20500;49.856;20.290;2023-02-15T07:14:38;22.20;;;14.40;;
34234;SDS011;20500;49.856;20.290;2023-02-15T07:20:49;20.60;;;13.60;;
34234;SDS011;20500;49.856;20.290;2023-02-15T07:23:57;21.10;;;13.50;;
34234;SDS011;20500;49.856;20.290;2023-02-15T07:27:03;20.50;;;13.60;;
34234;SDS011;20500;49.856;20.290;2023-02-15T07:30:11;20.50;;;13.00;;
34234;SDS011;20500;49.856;20.290;2023-02-15T07:33:20;21.80;;;14.60;;
34234;SDS011;20500;49.856;20.290;2023-02-15T07:36:30;21.20;;;13.80;;
34234;SDS011;20500;49.856;20.290;2023-02-15T07:42:40;21.60;;;14.10;;
34234;SDS011;20500;49.856;20.290;2023-02-15T07:48:52;23.20;;;15.00;;
34234;SDS011;20500;49.856;20.290;2023-02-15T07:51:58;22.50;;;15.40;;
34234;SDS011;20500;49.856;20.290;2023-02-15T07:55:06;22.80;;;15.00;;
34234;SDS011;20500;49.856;20.290;2023-02-15T07:58:15;26.50;;;16.90;;
34234;SDS011;20500;49.856;20.290;2023-02-15T08:01:24;24.40;;;16.40;;
34234;SDS011;20500;49.856;20.290;2023-02-15T08:04:31;25.20;;;17.10;;
34234;SDS011;20500;49.856;20.290;2023-02-15T08:07:37;27.00;;;19.60;;
34234;SDS011;20500;49.856;20.290;2023-02-15T08:10:44;30.80;;;21.30;;
34234;SDS011;20500;49.856;20.290;2023-02-15T08:14:08;31.30;;;21.00;;
34234;SDS011;20500;49.856;20.290;2023-02-15T08:17:15;29.60;;;20.60;;
34234;SDS011;20500;49.856;20.290;2023-02-15T08:20:22;29.00;;;20.70;;
34234;SDS011;20500;49.856;20.290;2023-02-15T08:23:28;27.70;;;20.30;;
34234;SDS011;20500;49.856;20.290;2023-02-15T08:29:39;29.40;;;20.80;;
34234;SDS011;20500;49.856;20.290;2023-02-15T08:32:45;27.50;;;19.90;;
34234;SDS011;20500;49.856;20.290;2023-02-15T08:35:52;29.10;;;20.20;;
34234;SDS011;20500;49.856;20.290;2023-02-15T08:38:59;30.00;;;20.50;;
34234;SDS011;20500;49.856;20.290;2023-02-15T08:42:06;29.80;;;21.10;;
34234;SDS011;20500;49.856;20.290;2023-02-15T08:45:13;31.50;;;21.90;;
34234;SDS011;20500;49.856;20.290;2023-02-15T08:48:19;30.80;;;22.10;;
34234;SDS011;20500;49.856;20.290;2023-02-15T08:51:26;29.70;;;20.40;;
34234;SDS011;20500;49.856;20.290;2023-02-15T08:54:33;29.50;;;20.60;;
34234;SDS011;20500;49.856;20.290;2023-02-15T09:00:47;27.80;;;19.70;;
34234;SDS011;20500;49.856;20.290;2023-02-15T09:07:01;27.50;;;18.70;;
34234;SDS011;20500;49.856;20.290;2023-02-15T09:10:08;28.40;;;18.90;;
34234;SDS011;20500;49.856;20.290;2023-02-15T09:13:15;27.70;;;19.80;;
34234;SDS011;20500;49.856;20.290;2023-02-15T09:16:22;26.10;;;18.70;;
34234;SDS011;20500;49.856;20.290;2023-02-15T09:19:29;27.10;;;19.10;;
34234;SDS011;20500;49.856;20.290;2023-02-15T09:22:36;26.80;;;19.20;;
34234;SDS011;20500;49.856;20.290;2023-02-15T09:28:47;29.00;;;18.90;;
34234;SDS011;20500;49.856;20.290;2023-02-15T09:31:56;27.50;;;18.50;;
34234;SDS011;20500;49.856;20.290;2023-02-15T09:38:06;25.70;;;17.70;;
34234;SDS011;20500;49.856;20.290;2023-02-15T09:41:24;26.80;;;18.10;;
34234;SDS011;20500;49.856;20.290;2023-02-15T09:44:51;24.10;;;16.20;;
34234;SDS011;20500;49.856;20.290;2023-02-15T09:48:12;25.10;;;16.90;;
34234;SDS011;20500;49.856;20.290;2023-02-15T09:51:38;25.90;;;17.70;;
34234;SDS011;20500;49.856;20.290;2023-02-15T09:55:00;27.10;;;18.30;;
34234;SDS011;20500;49.856;20.290;2023-02-15T09:58:17;24.50;;;17.30;;
34234;SDS011;20500;49.856;20.290;2023-02-15T10:01:32;26.30;;;17.70;;
34234;SDS011;20500;49.856;20.290;2023-02-15T10:04:51;25.90;;;17.50;;
34234;SDS011;20500;49.856;20.290;2023-02-15T10:08:15;23.20;;;15.70;;
34234;SDS011;20500;49.856;20.290;2023-02-15T10:11:40;25.10;;;16.60;;
34234;SDS011;20500;49.856;20.290;2023-02-15T10:14:56;24.30;;;16.30;;
34234;SDS011;20500;49.856;20.290;2023-02-15T10:18:19;22.10;;;14.10;;
34234;SDS011;20500;49.856;20.290;2023-02-15T10:21:42;24.10;;;16.20;;
34234;SDS011;20500;49.856;20.290;2023-02-15T10:28:26;25.40;;;16.40;;
34234;SDS011;20500;49.856;20.290;2023-02-15T10:31:41;22.30;;;15.50;;
34234;SDS011;20500;49.856;20.290;2023-02-15T10:34:54;22.70;;;14.70;;
34234;SDS011;20500;49.856;20.290;2023-02-15T10:38:08;21.80;;;14.70;;
34234;SDS011;20500;49.856;20.290;2023-02-15T10:41:31;23.20;;;15.30;;
34234;SDS011;20500;49.856;20.290;2023-02-15T10:44:52;27.90;;;18.40;;
34234;SDS011;20500;49.856;20.290;2023-02-15T10:52:01;24.30;;;15.50;;
34234;SDS011;20500;49.856;20.290;2023-02-15T10:55:23;32.60;;;20.70;;
34234;SDS011;20500;49.856;20.290;2023-02-15T10:58:40;27.40;;;18.30;;
34234;SDS011;20500;49.856;20.290;2023-02-15T11:02:10;22.90;;;15.80;;
34234;SDS011;20500;49.856;20.290;2023-02-15T11:08:53;21.90;;;15.20;;
34234;SDS011;20500;49.856;20.290;2023-02-15T11:12:04;82.60;;;65.80;;
34234;SDS011;20500;49.856;20.290;2023-02-15T11:15:16;32.10;;;22.80;;
34234;SDS011;20500;49.856;20.290;2023-02-15T11:18:31;23.90;;;16.10;;
34234;SDS011;20500;49.856;20.290;2023-02-15T11:21:40;22.90;;;15.10;;
34234;SDS011;20500;49.856;20.290;2023-02-15T11:24:50;23.80;;;16.40;;
34234;SDS011;20500;49.856;20.290;2023-02-15T11:28:00;22.30;;;15.30;;
34234;SDS011;20500;49.856;20.290;2023-02-15T11:31:15;21.70;;;14.60;;
34234;SDS011;20500;49.856;20.290;2023-02-15T11:34:25;23.00;;;16.40;;
34234;SDS011;20500;49.856;20.290;2023-02-15T11:37:38;25.00;;;18.50;;
34234;SDS011;20500;49.856;20.290;2023-02-15T11:40:53;22.20;;;15.20;;
34234;SDS011;20500;49.856;20.290;2023-02-15T11:44:03;23.70;;;16.40;;
34234;SDS011;20500;49.856;20.290;2023-02-15T11:47:18;23.90;;;17.20;;
34234;SDS011;20500;49.856;20.290;2023-02-15T11:53:32;23.90;;;15.30;;
34234;SDS011;20500;49.856;20.290;2023-02-15T11:56:41;24.10;;;16.70;;
34234;SDS011;20500;49.856;20.290;2023-02-15T11:59:49;23.90;;;16.70;;
34234;SDS011;20500;49.856;20.290;2023-02-15T12:03:00;22.50;;;16.00;;
34234;SDS011;20500;49.856;20.290;2023-02-15T12:06:22;24.90;;;17.20;;
34234;SDS011;20500;49.856;20.290;2023-02-15T12:09:33;21.50;;;15.20;;
34234;SDS011;20500;49.856;20.290;2023-02-15T12:12:43;23.50;;;15.40;;
34234;SDS011;20500;49.856;20.290;2023-02-15T12:15:49;21.40;;;14.70;;
34234;SDS011;20500;49.856;20.290;2023-02-15T12:19:00;21.30;;;14.90;;
34234;SDS011;20500;49.856;20.290;2023-02-15T12:22:17;23.80;;;16.40;;
34234;SDS011;20500;49.856;20.290;2023-02-15T12:25:29;23.30;;;16.60;;
34234;SDS011;20500;49.856;20.290;2023-02-15T12:28:40;24.10;;;17.20;;
34234;SDS011;20500;49.856;20.290;2023-02-15T12:31:49;25.90;;;19.70;;
34234;SDS011;20500;49.856;20.290;2023-02-15T12:35:00;22.00;;;15.50;;
34234;SDS011;20500;49.856;20.290;2023-02-15T12:41:27;24.20;;;17.50;;
34234;SDS011;20500;49.856;20.290;2023-02-15T12:47:38;22.70;;;15.60;;
34234;SDS011;20500;49.856;20.290;2023-02-15T12:50:45;23.30;;;16.00;;
34234;SDS011;20500;49.856;20.290;2023-02-15T12:53:59;24.60;;;16.50;;
34234;SDS011;20500;49.856;20.290;2023-02-15T12:57:26;23.90;;;16.20;;
34234;SDS011;20500;49.856;20.290;2023-02-15T13:00:34;22.30;;;15.90;;
34234;SDS011;20500;49.856;20.290;2023-02-15T13:03:51;24.80;;;17.00;;
34234;SDS011;20500;49.856;20.290;2023-02-15T13:07:02;23.50;;;15.90;;
34234;SDS011;20500;49.856;20.290;2023-02-15T13:10:17;22.90;;;15.40;;
34234;SDS011;20500;49.856;20.290;2023-02-15T13:13:28;23.80;;;16.00;;
34234;SDS011;20500;49.856;20.290;2023-02-15T13:16:36;22.70;;;16.00;;
34234;SDS011;20500;49.856;20.290;2023-02-15T13:19:44;22.70;;;15.90;;
34234;SDS011;20500;49.856;20.290;2023-02-15T13:22:53;23.00;;;16.20;;
34234;SDS011;20500;49.856;20.290;2023-02-15T13:26:04;23.50;;;16.20;;
34234;SDS011;20500;49.856;20.290;2023-02-15T13:29:17;22.50;;;15.20;;
34234;SDS011;20500;49.856;20.290;2023-02-15T13:32:28;24.00;;;16.90;;
34234;SDS011;20500;49.856;20.290;2023-02-15T13:35:40;22.80;;;16.00;;
34234;SDS011;20500;49.856;20.290;2023-02-15T13:38:53;22.50;;;15.30;;
34234;SDS011;20500;49.856;20.290;2023-02-15T13:42:11;22.80;;;16.00;;
34234;SDS011;20500;49.856;20.290;2023-02-15T13:45:28;22.70;;;14.30;;
34234;SDS011;20500;49.856;20.290;2023-02-15T13:48:44;22.20;;;14.80;;
34234;SDS011;20500;49.856;20.290;2023-02-15T13:55:13;20.90;;;14.40;;
34234;SDS011;20500;49.856;20.290;2023-02-15T13:58:37;20.20;;;13.60;;
34234;SDS011;20500;49.856;20.290;2023-02-15T14:05:31;19.90;;;13.30;;
34234;SDS011;20500;49.856;20.290;2023-02-15T14:08:52;19.80;;;12.60;;
34234;SDS011;20500;49.856;20.290;2023-02-15T14:12:18;19.70;;;12.70;;
34234;SDS011;20500;49.856;20.290;2023-02-15T14:15:40;18.70;;;12.60;;
34234;SDS011;20500;49.856;20.290;2023-02-15T14:18:54;20.90;;;12.80;;
34234;SDS011;20500;49.856;20.290;2023-02-15T14:22:09;19.60;;;12.20;;
34234;SDS011;20500;49.856;20.290;2023-02-15T14:25:25;18.90;;;12.70;;
34234;SDS011;20500;49.856;20.290;2023-02-15T14:28:37;21.60;;;14.30;;
34234;SDS011;20500;49.856;20.290;2023-02-15T14:31:48;20.80;;;13.70;;
34234;SDS011;20500;49.856;20.290;2023-02-15T14:34:58;21.10;;;13.20;;
34234;SDS011;20500;49.856;20.290;2023-02-15T14:38:07;21.70;;;14.30;;
34234;SDS011;20500;49.856;20.290;2023-02-15T14:41:25;19.80;;;13.50;;
34234;SDS011;20500;49.856;20.290;2023-02-15T14:44:41;20.70;;;14.00;;
34234;SDS011;20500;49.856;20.290;2023-02-15T14:47:55;20.30;;;13.30;;
34234;SDS011;20500;49.856;20.290;2023-02-15T14:51:09;19.50;;;12.40;;
34234;SDS011;20500;49.856;20.290;2023-02-15T14:58:01;20.20;;;12.80;;
34234;SDS011;20500;49.856;20.290;2023-02-15T15:01:14;20.70;;;14.00;;
34234;SDS011;20500;49.856;20.290;2023-02-15T15:04:31;44.90;;;28.50;;
34234;SDS011;20500;49.856;20.290;2023-02-15T15:07:43;38.60;;;24.80;;
34234;SDS011;20500;49.856;20.290;2023-02-15T15:10:51;43.10;;;27.10;;
34234;SDS011;20500;49.856;20.290;2023-02-15T15:13:58;41.70;;;26.80;;
34234;SDS011;20500;49.856;20.290;2023-02-15T15:17:08;37.40;;;25.30;;
34234;SDS011;20500;49.856;20.290;2023-02-15T15:20:37;36.50;;;24.60;;
34234;SDS011;20500;49.856;20.290;2023-02-15T15:23:48;34.80;;;24.50;;
34234;SDS011;20500;49.856;20.290;2023-02-15T15:34:11;49.30;;;35.50;;
34234;SDS011;20500;49.856;20.290;2023-02-15T15:37:54;51.90;;;37.10;;
34234;SDS011;20500;49.856;20.290;2023-02-15T15:41:30;48.60;;;35.80;;
34234;SDS011;20500;49.856;20.290;2023-02-15T15:48:30;54.90;;;39.90;;
34234;SDS011;20500;49.856;20.290;2023-02-15T15:51:41;51.20;;;38.40;;
34234;SDS011;20500;49.856;20.290;2023-02-15T15:54:50;45.70;;;33.20;;
34234;SDS011;20500;49.856;20.290;2023-02-15T15:58:00;38.10;;;26.10;;
34234;SDS011;20500;49.856;20.290;2023-02-15T16:01:10;36.80;;;25.70;;
34234;SDS011;20500;49.856;20.290;2023-02-15T16:04:24;39.10;;;27.50;;
34234;SDS011;20500;49.856;20.290;2023-02-15T16:07:32;40.40;;;28.60;;
34234;SDS011;20500;49.856;20.290;2023-02-15T16:13:44;35.30;;;23.90;;
34234;SDS011;20500;49.856;20.290;2023-02-15T16:16:52;32.80;;;22.00;;
34234;SDS011;20500;49.856;20.290;2023-02-15T16:20:02;34.80;;;25.60;;
34234;SDS011;20500;49.856;20.290;2023-02-15T16:23:16;43.10;;;31.10;;
34234;SDS011;20500;49.856;20.290;2023-02-15T16:26:39;38.10;;;27.10;;
34234;SDS011;20500;49.856;20.290;2023-02-15T16:29:55;35.80;;;25.40;;
34234;SDS011;20500;49.856;20.290;2023-02-15T16:36:12;31.10;;;22.70;;
34234;SDS011;20500;49.856;20.290;2023-02-15T16:39:24;40.00;;;29.90;;
34234;SDS011;20500;49.856;20.290;2023-02-15T16:42:31;33.60;;;24.00;;
34234;SDS011;20500;49.856;20.290;2023-02-15T16:45:38;36.30;;;26.10;;
34234;SDS011;20500;49.856;20.290;2023-02-15T16:48:45;33.30;;;22.90;;
34234;SDS011;20500;49.856;20.290;2023-02-15T16:51:57;35.30;;;23.20;;
34234;SDS011;20500;49.856;20.290;2023-02-15T16:55:18;39.40;;;27.90;;
34234;SDS011;20500;49.856;20.290;2023-02-15T16:58:30;53.80;;;38.10;;
34234;SDS011;20500;49.856;20.290;2023-02-15T17:01:43;53.70;;;40.30;;
34234;SDS011;20500;49.856;20.290;2023-02-15T17:05:01;49.00;;;35.90;;
34234;SDS011;20500;49.856;20.290;2023-02-15T17:08:24;38.30;;;26.70;;
34234;SDS011;20500;49.856;20.290;2023-02-15T17:11:34;45.30;;;30.60;;
34234;SDS011;20500;49.856;20.290;2023-02-15T17:14:44;39.80;;;26.30;;
34234;SDS011;20500;49.856;20.290;2023-02-15T17:17:50;33.90;;;23.70;;
34234;SDS011;20500;49.856;20.290;2023-02-15T17:20:59;31.80;;;22.00;;
34234;SDS011;20500;49.856;20.290;2023-02-15T17:24:16;32.70;;;24.00;;
34234;SDS011;20500;49.856;20.290;2023-02-15T17:27:27;31.90;;;22.10;;
34234;SDS011;20500;49.856;20.290;2023-02-15T17:30:36;31.50;;;22.30;;
34234;SDS011;20500;49.856;20.290;2023-02-15T17:33:43;30.10;;;21.90;;
34234;SDS011;20500;49.856;20.290;2023-02-15T17:36:58;34.40;;;23.30;;
34234;SDS011;20500;49.856;20.290;2023-02-15T17:40:09;34.10;;;23.30;;
34234;SDS011;20500;49.856;20.290;2023-02-15T17:43:24;36.90;;;24.10;;
34234;SDS011;20500;49.856;20.290;2023-02-15T17:46:32;37.00;;;23.10;;
34234;SDS011;20500;49.856;20.290;2023-02-15T17:49:40;37.00;;;25.90;;
34234;SDS011;20500;49.856;20.290;2023-02-15T17:52:46;38.10;;;25.10;;
34234;SDS011;20500;49.856;20.290;2023-02-15T17:55:53;35.70;;;24.30;;
34234;SDS011;20500;49.856;20.290;2023-02-15T17:59:00;37.60;;;25.70;;
34234;SDS011;20500;49.856;20.290;2023-02-15T18:02:09;37.70;;;25.20;;
34234;SDS011;20500;49.856;20.290;2023-02-15T18:05:34;35.60;;;23.40;;
34234;SDS011;20500;49.856;20.290;2023-02-15T18:08:58;38.30;;;24.50;;
34234;SDS011;20500;49.856;20.290;2023-02-15T18:12:22;38.70;;;26.70;;
34234;SDS011;20500;49.856;20.290;2023-02-15T18:15:30;39.40;;;27.50;;
34234;SDS011;20500;49.856;20.290;2023-02-15T18:18:38;40.70;;;28.10;;
34234;SDS011;20500;49.856;20.290;2023-02-15T18:21:44;45.80;;;29.70;;
34234;SDS011;20500;49.856;20.290;2023-02-15T18:24:51;47.90;;;31.60;;
34234;SDS011;20500;49.856;20.290;2023-02-15T18:27:58;44.40;;;30.90;;
34234;SDS011;20500;49.856;20.290;2023-02-15T18:31:04;47.00;;;29.30;;
34234;SDS011;20500;49.856;20.290;2023-02-15T18:37:28;47.90;;;32.10;;
34234;SDS011;20500;49.856;20.290;2023-02-15T18:40:36;66.40;;;45.30;;
34234;SDS011;20500;49.856;20.290;2023-02-15T18:43:42;71.40;;;47.90;;
34234;SDS011;20500;49.856;20.290;2023-02-15T18:46:48;64.40;;;45.60;;
34234;SDS011;20500;49.856;20.290;2023-02-15T18:53:00;58.20;;;40.70;;
34234;SDS011;20500;49.856;20.290;2023-02-15T18:56:09;48.70;;;33.30;;
34234;SDS011;20500;49.856;20.290;2023-02-15T18:59:20;57.80;;;40.30;;
34234;SDS011;20500;49.856;20.290;2023-02-15T19:02:27;49.80;;;32.90;;
34234;SDS011;20500;49.856;20.290;2023-02-15T19:05:34;46.20;;;30.90;;
34234;SDS011;20500;49.856;20.290;2023-02-15T19:08:42;52.80;;;35.70;;
34234;SDS011;20500;49.856;20.290;2023-02-15T19:11:51;68.20;;;48.80;;
34234;SDS011;20500;49.856;20.290;2023-02-15T19:14:59;52.40;;;34.30;;
34234;SDS011;20500;49.856;20.290;2023-02-15T19:21:13;48.40;;;33.60;;
34234;SDS011;20500;49.856;20.290;2023-02-15T19:24:21;49.40;;;32.10;;
34234;SDS011;20500;49.856;20.290;2023-02-15T19:27:33;49.00;;;31.00;;
34234;SDS011;20500;49.856;20.290;2023-02-15T19:30:41;48.40;;;31.00;;
34234;SDS011;20500;49.856;20.290;2023-02-15T19:33:47;47.80;;;31.90;;
34234;SDS011;20500;49.856;20.290;2023-02-15T19:39:59;44.00;;;28.10;;
34234;SDS011;20500;49.856;20.290;2023-02-15T19:43:08;48.20;;;28.90;;
34234;SDS011;20500;49.856;20.290;2023-02-15T19:46:20;45.50;;;29.50;;
34234;SDS011;20500;49.856;20.290;2023-02-15T19:49:27;54.30;;;34.40;;
34234;SDS011;20500;49.856;20.290;2023-02-15T19:52:34;53.70;;;36.10;;
34234;SDS011;20500;49.856;20.290;2023-02-15T19:55:40;52.30;;;35.10;;
34234;SDS011;20500;49.856;20.290;2023-02-15T20:01:52;60.60;;;39.50;;
34234;SDS011;20500;49.856;20.290;2023-02-15T20:04:59;57.50;;;37.60;;
34234;SDS011;20500;49.856;20.290;2023-02-15T20:11:11;63.60;;;40.70;;
34234;SDS011;20500;49.856;20.290;2023-02-15T20:14:18;56.70;;;38.00;;
34234;SDS011;20500;49.856;20.290;2023-02-15T20:17:25;56.60;;;37.10;;
34234;SDS011;20500;49.856;20.290;2023-02-15T20:20:33;61.10;;;39.20;;
34234;SDS011;20500;49.856;20.290;2023-02-15T20:23:45;60.10;;;39.30;;
34234;SDS011;20500;49.856;20.290;2023-02-15T20:29:56;69.90;;;43.80;;
34234;SDS011;20500;49.856;20.290;2023-02-15T20:33:02;72.30;;;45.50;;